Time;durP1;ratioP1;P1;durP2;ratioP2;P2;SDS_P1;SDS_P2;PMS_P1;PMS_P2;Temp;Humidity;BMP_temperature;BMP_pressure;BME280_temperature;BME280_humidity;BME280_pressure;Samples;Min_cycle;Max_cycle;Signal;HPM_P1;HPM_P2
2024/01/16 00:01:19;;;;;;;4.60;2.40;;;;;1.90;100167.00;;;;4857865;29;20733;-69
2024/01/16 00:04:07;;;;;;;5.13;3.00;;;;;1.80;100166.00;;;;4858328;29;20714;-69
2024/01/16 00:06:55;;;;;;;4.87;3.47;;;;;1.80;100175.00;;;;4852130;29;20234;-71
2024/01/16 00:09:41;;;;;;;4.97;2.70;;;;;1.90;100163.00;;;;4858487;29;20238;-69
2024/01/16 00:12:27;;;;;;;5.63;2.77;;;;;2.00;100167.00;;;;4854322;29;20356;-71
2024/01/16 00:15:14;;;;;;;3.83;3.07;;;;;2.00;100170.00;;;;4853748;29;20985;-69
2024/01/16 00:18:00;;;;;;;4.07;3.07;;;;;2.00;100176.00;;;;4851131;29;20336;-73
2024/01/16 00:20:46;;;;;;;3.73;2.73;;;;;2.00;100162.00;;;;4849310;29;20236;-69
2024/01/16 00:23:34;;;;;;;3.50;3.07;;;;;2.00;100170.00;;;;4852034;29;20781;-69
2024/01/16 00:26:21;;;;;;;3.40;3.10;;;;;1.90;100179.00;;;;4854354;29;20338;-71
2024/01/16 00:29:09;;;;;;;4.30;2.67;;;;;1.90;100163.00;;;;4860719;29;20777;-70
2024/01/16 00:31:55;;;;;;;6.50;2.93;;;;;2.00;100165.00;;;;4862653;29;20244;-71
2024/01/16 00:34:42;;;;;;;4.70;2.63;;;;;1.90;100159.00;;;;4863007;29;20303;-71
2024/01/16 00:37:28;;;;;;;3.33;3.00;;;;;2.00;100166.00;;;;4867397;29;20323;-70
2024/01/16 00:40:16;;;;;;;5.50;2.73;;;;;1.90;100170.00;;;;4848991;29;20313;-70
2024/01/16 00:43:02;;;;;;;4.83;3.00;;;;;1.90;100180.00;;;;4856157;29;20731;-70
2024/01/16 00:45:49;;;;;;;7.43;2.97;;;;;1.80;100181.00;;;;4857202;29;20238;-71
2024/01/16 00:48:35;;;;;;;4.67;2.93;;;;;1.80;100188.00;;;;4856023;29;20234;-70
2024/01/16 00:51:21;;;;;;;7.57;3.10;;;;;1.80;100185.00;;;;4861490;29;20248;-70
2024/01/16 00:54:08;;;;;;;3.87;3.30;;;;;1.90;100198.00;;;;4861612;29;20241;-71
2024/01/16 00:56:59;;;;;;;10.13;2.97;;;;;1.80;100203.00;;;;4846215;29;20683;-71
2024/01/16 00:59:45;;;;;;;3.30;2.40;;;;;1.90;100212.00;;;;4864415;29;20275;-70
2024/01/16 01:02:32;;;;;;;2.57;2.37;;;;;1.80;100200.00;;;;4864750;29;20838;-70
2024/01/16 01:05:18;;;;;;;8.97;3.40;;;;;1.70;100204.00;;;;4856167;29;20329;-72
2024/01/16 01:08:05;;;;;;;2.60;2.07;;;;;1.70;100222.00;;;;4862615;29;20232;-67
2024/01/16 01:10:51;;;;;;;6.67;2.50;;;;;1.80;100216.00;;;;4854648;29;20837;-71
2024/01/16 01:13:39;;;;;;;3.77;2.93;;;;;1.80;100222.00;;;;4859729;29;20901;-69
2024/01/16 01:16:25;;;;;;;3.77;2.57;;;;;1.80;100218.00;;;;4859390;29;20378;-71
2024/01/16 01:19:12;;;;;;;4.93;3.53;;;;;1.90;100226.00;;;;4860722;29;20614;-70
2024/01/16 01:21:59;;;;;;;3.27;2.33;;;;;1.90;100223.00;;;;4853477;29;20238;-70
2024/01/16 01:24:45;;;;;;;7.60;3.90;;;;;1.90;100229.00;;;;4858541;29;20240;-71
2024/01/16 01:27:31;;;;;;;5.00;2.67;;;;;1.80;100219.00;;;;4852419;29;20498;-70
2024/01/16 01:30:19;;;;;;;5.37;3.07;;;;;1.70;100227.00;;;;4859732;29;20269;-72
2024/01/16 01:33:06;;;;;;;3.73;3.43;;;;;1.80;100221.00;;;;4865483;29;20871;-70
2024/01/16 01:35:52;;;;;;;3.70;2.57;;;;;1.80;100232.00;;;;4862233;29;20736;-70
2024/01/16 01:38:38;;;;;;;4.57;2.83;;;;;1.80;100229.00;;;;4853806;29;20249;-69
2024/01/16 01:41:25;;;;;;;4.33;2.40;;;;;1.80;100243.00;;;;4852009;29;20240;-70
2024/01/16 01:44:15;;;;;;;3.80;2.83;;;;;1.80;100241.00;;;;4852788;29;20309;-71
2024/01/16 01:47:04;;;;;;;5.30;2.20;;;;;1.80;100247.00;;;;4863850;29;20700;-67
2024/01/16 01:49:51;;;;;;;2.87;2.67;;;;;1.80;100240.00;;;;4851402;29;20759;-71
2024/01/16 01:52:41;;;;;;;2.40;2.20;;;;;1.80;100249.00;;;;4856489;29;20242;-70
2024/01/16 01:55:28;;;;;;;2.30;1.93;;;;;1.80;100255.00;;;;4864284;29;20299;-70
2024/01/16 01:58:15;;;;;;;2.27;2.07;;;;;1.80;100242.00;;;;4855813;29;20748;-71
2024/01/16 02:01:04;;;;;;;3.70;3.40;;;;;1.80;100249.00;;;;4863184;29;20241;-72
2024/01/16 02:03:53;;;;;;;8.97;2.97;;;;;1.70;100232.00;;;;4870449;29;20352;-68
2024/01/16 02:06:39;;;;;;;3.43;2.30;;;;;1.70;100241.00;;;;4852181;29;20317;-70
2024/01/16 02:09:26;;;;;;;3.43;2.73;;;;;1.70;100233.00;;;;4862119;29;20253;-70
2024/01/16 02:12:12;;;;;;;3.07;2.43;;;;;1.70;100245.00;;;;4850067;29;20311;-70
2024/01/16 02:14:58;;;;;;;2.43;2.00;;;;;1.70;100248.00;;;;4854949;29;20256;-70
2024/01/16 02:17:45;;;;;;;3.07;2.63;;;;;1.60;100250.00;;;;4867737;29;20230;-71
2024/01/16 02:20:33;;;;;;;3.13;2.67;;;;;1.70;100246.00;;;;4853544;29;20235;-70
2024/01/16 02:23:27;;;;;;;3.63;2.17;;;;;1.70;100248.00;;;;4863851;29;20245;-70
2024/01/16 02:26:15;;;;;;;2.10;2.00;;;;;1.70;100251.00;;;;4861773;29;20311;-69
2024/01/16 02:29:02;;;;;;;3.73;2.60;;;;;1.70;100242.00;;;;4853977;29;20624;-72
2024/01/16 02:31:48;;;;;;;3.33;2.13;;;;;1.70;100239.00;;;;4867965;29;20377;-71
2024/01/16 02:34:34;;;;;;;2.07;1.83;;;;;1.70;100250.00;;;;4859596;29;20613;-70
2024/01/16 02:37:22;;;;;;;4.67;2.60;;;;;1.70;100248.00;;;;4867674;29;20305;-67
2024/01/16 02:40:10;;;;;;;3.23;2.30;;;;;1.80;100259.00;;;;4867405;29;20331;-70
2024/01/16 02:42:57;;;;;;;3.27;2.73;;;;;1.80;100244.00;;;;4856080;29;20288;-70
2024/01/16 02:45:43;;;;;;;3.33;2.30;;;;;1.80;100236.00;;;;4868362;29;20248;-70
2024/01/16 02:48:29;;;;;;;5.43;2.30;;;;;1.80;100245.00;;;;4866919;29;20240;-70
2024/01/16 02:51:16;;;;;;;2.63;2.10;;;;;1.80;100240.00;;;;4860563;29;20316;-70
2024/01/16 02:54:02;;;;;;;10.03;2.90;;;;;1.80;100247.00;;;;4861058;29;20252;-71
2024/01/16 02:56:50;;;;;;;4.33;3.10;;;;;1.80;100244.00;;;;4869219;29;20836;-70
2024/01/16 02:59:36;;;;;;;3.67;2.03;;;;;1.80;100241.00;;;;4859915;29;20259;-71
2024/01/16 03:02:23;;;;;;;3.80;2.27;;;;;1.80;100247.00;;;;4866429;29;20246;-71
2024/01/16 03:05:10;;;;;;;3.10;2.50;;;;;1.70;100241.00;;;;4854957;29;20232;-69
2024/01/16 03:07:57;;;;;;;3.60;3.03;;;;;1.80;100246.00;;;;4863422;29;20360;-71
2024/01/16 03:10:43;;;;;;;3.93;2.20;;;;;1.80;100252.00;;;;4866410;29;20243;-72
2024/01/16 03:13:31;;;;;;;2.33;1.80;;;;;1.80;100248.00;;;;4866719;29;20737;-72
2024/01/16 03:16:17;;;;;;;3.30;2.60;;;;;1.70;100256.00;;;;4859942;29;20660;-70
2024/01/16 03:19:03;;;;;;;3.07;2.63;;;;;1.80;100250.00;;;;4863779;29;20240;-69
2024/01/16 03:21:49;;;;;;;4.23;2.90;;;;;1.80;100247.00;;;;4865016;29;20529;-71
2024/01/16 03:24:36;;;;;;;2.87;2.40;;;;;1.80;100249.00;;;;4864194;29;20637;-72
2024/01/16 03:27:22;;;;;;;2.43;2.03;;;;;1.80;100245.00;;;;4856142;29;20235;-72
2024/01/16 03:30:10;;;;;;;3.07;1.93;;;;;1.80;100234.00;;;;4855895;29;20232;-70
2024/01/16 03:32:57;;;;;;;2.53;1.97;;;;;1.80;100240.00;;;;4869611;29;20262;-70
2024/01/16 03:35:43;;;;;;;2.63;2.17;;;;;1.80;100236.00;;;;4859243;29;20314;-70
2024/01/16 03:38:30;;;;;;;2.90;2.57;;;;;1.80;100245.00;;;;4866050;29;20224;-70
2024/01/16 03:41:16;;;;;;;3.07;2.17;;;;;1.70;100241.00;;;;4845779;29;20236;-70
2024/01/16 03:44:02;;;;;;;1.90;1.50;;;;;1.70;100241.00;;;;4865589;29;20238;-70
2024/01/16 03:46:50;;;;;;;3.47;2.70;;;;;1.70;100242.00;;;;4863605;29;20237;-70
2024/01/16 03:49:36;;;;;;;4.83;2.77;;;;;1.70;100232.00;;;;4854346;29;20274;-70
2024/01/16 03:52:22;;;;;;;6.40;3.57;;;;;1.80;100245.00;;;;4859551;29;20604;-70
2024/01/16 03:55:09;;;;;;;3.00;2.13;;;;;1.90;100250.00;;;;4863761;29;20246;-71
2024/01/16 03:57:56;;;;;;;5.77;2.93;;;;;1.80;100240.00;;;;4852865;29;20979;-70
2024/01/16 04:00:42;;;;;;;2.63;2.20;;;;;1.70;100247.00;;;;4856579;29;20883;-70
2024/01/16 04:03:30;;;;;;;2.13;1.80;;;;;1.80;100244.00;;;;4862216;29;20631;-69
2024/01/16 04:06:17;;;;;;;2.37;2.17;;;;;1.80;100248.00;;;;4853262;29;20237;-69
2024/01/16 04:09:04;;;;;;;6.17;3.17;;;;;1.80;100245.00;;;;4864387;29;20241;-71
2024/01/16 04:11:51;;;;;;;4.87;3.27;;;;;1.90;100237.00;;;;4864540;29;20253;-69
2024/01/16 04:14:37;;;;;;;4.57;3.40;;;;;1.90;100251.00;;;;4860105;29;20272;-71
2024/01/16 04:17:23;;;;;;;7.90;3.87;;;;;1.90;100249.00;;;;4861588;29;20246;-71
2024/01/16 04:20:12;;;;;;;2.83;2.53;;;;;1.80;100241.00;;;;4860206;29;20234;-70
2024/01/16 04:22:59;;;;;;;4.23;3.03;;;;;1.70;100245.00;;;;4867685;29;20374;-70
2024/01/16 04:25:45;;;;;;;3.93;2.60;;;;;1.80;100248.00;;;;4849462;29;20255;-71
2024/01/16 04:28:31;;;;;;;6.23;3.43;;;;;1.80;100252.00;;;;4862921;29;20357;-70
2024/01/16 04:31:19;;;;;;;4.87;3.73;;;;;1.80;100250.00;;;;4852769;29;20310;-72
2024/01/16 04:34:05;;;;;;;5.13;2.80;;;;;1.80;100249.00;;;;4861713;29;20312;-70
2024/01/16 04:36:53;;;;;;;5.00;3.20;;;;;1.70;100237.00;;;;4860993;29;20232;-70
2024/01/16 04:39:39;;;;;;;2.90;2.63;;;;;1.70;100233.00;;;;4858988;29;20242;-70
2024/01/16 04:42:25;;;;;;;6.03;3.60;;;;;1.80;100238.00;;;;4861592;29;20767;-70
2024/01/16 04:45:12;;;;;;;2.77;2.53;;;;;1.70;100237.00;;;;4861165;29;20238;-70
2024/01/16 04:47:59;;;;;;;7.20;4.03;;;;;1.80;100248.00;;;;4864178;29;20308;-70
2024/01/16 04:50:45;;;;;;;7.57;3.40;;;;;1.80;100237.00;;;;4866812;29;20242;-71
2024/01/16 04:53:33;;;;;;;3.43;2.80;;;;;1.80;100239.00;;;;4861804;29;20402;-70
2024/01/16 04:56:19;;;;;;;3.53;3.07;;;;;1.80;100238.00;;;;4859734;29;20237;-70
2024/01/16 04:59:05;;;;;;;3.80;2.83;;;;;1.80;100243.00;;;;4863894;29;20249;-70
2024/01/16 05:01:52;;;;;;;4.83;2.77;;;;;1.90;100241.00;;;;4863200;29;20804;-70
2024/01/16 05:04:39;;;;;;;3.20;2.10;;;;;1.90;100235.00;;;;4859624;29;20625;-72
2024/01/16 05:07:28;;;;;;;4.27;3.57;;;;;1.90;100229.00;;;;4854356;29;20244;-71
2024/01/16 05:10:15;;;;;;;4.67;3.33;;;;;1.80;100223.00;;;;4861715;29;20238;-70
2024/01/16 05:13:01;;;;;;;2.57;2.30;;;;;1.80;100226.00;;;;4860972;29;20725;-72
2024/01/16 05:15:48;;;;;;;2.80;2.60;;;;;1.80;100221.00;;;;4863854;29;20233;-70
2024/01/16 05:18:35;;;;;;;4.57;3.50;;;;;1.80;100209.00;;;;4865957;29;20250;-71
2024/01/16 05:21:21;;;;;;;6.10;3.17;;;;;1.80;100213.00;;;;4863739;29;20238;-72
2024/01/16 05:24:08;;;;;;;4.43;2.97;;;;;1.80;100213.00;;;;4863235;29;20238;-70
2024/01/16 05:26:56;;;;;;;4.83;3.07;;;;;1.80;100218.00;;;;4862495;29;20335;-71
2024/01/16 05:29:42;;;;;;;4.27;3.00;;;;;1.90;100215.00;;;;4862769;29;20239;-70
2024/01/16 05:32:30;;;;;;;3.20;2.47;;;;;1.90;100219.00;;;;4858203;29;20362;-70
2024/01/16 05:35:16;;;;;;;9.47;3.60;;;;;1.90;100216.00;;;;4868338;29;20335;-71
2024/01/16 05:38:03;;;;;;;5.53;3.57;;;;;1.80;100221.00;;;;4861725;29;20246;-72
2024/01/16 05:40:49;;;;;;;5.73;3.43;;;;;1.70;100216.00;;;;4865734;29;20277;-72
2024/01/16 05:43:37;;;;;;;3.63;2.53;;;;;1.80;100218.00;;;;4865169;29;20246;-70
2024/01/16 05:46:23;;;;;;;2.97;2.03;;;;;1.80;100207.00;;;;4859001;29;20496;-71
2024/01/16 05:49:10;;;;;;;3.87;2.17;;;;;1.80;100219.00;;;;4861253;29;20242;-72
2024/01/16 05:51:56;;;;;;;4.10;3.13;;;;;1.80;100214.00;;;;4857877;29;20240;-71
2024/01/16 05:54:42;;;;;;;4.40;2.47;;;;;1.80;100205.00;;;;4860478;29;20240;-69
2024/01/16 05:57:33;;;;;;;1.83;1.63;;;;;1.80;100200.00;;;;4858791;29;20696;-72
2024/01/16 06:00:22;;;;;;;4.03;2.33;;;;;1.80;100207.00;;;;4842704;29;20249;-72
2024/01/16 06:03:08;;;;;;;5.07;2.97;;;;;1.70;100203.00;;;;4864124;29;20319;-70
2024/01/16 06:05:55;;;;;;;2.73;2.37;;;;;1.80;100191.00;;;;4864338;29;20232;-70
2024/01/16 06:08:42;;;;;;;3.23;2.77;;;;;1.80;100191.00;;;;4862891;29;20243;-71
2024/01/16 06:11:31;;;;;;;5.47;2.63;;;;;1.80;100205.00;;;;4863613;29;20262;-71
2024/01/16 06:14:21;;;;;;;2.37;2.10;;;;;1.80;100207.00;;;;4865631;29;20312;-71
2024/01/16 06:17:09;;;;;;;3.27;2.17;;;;;1.80;100202.00;;;;4865448;29;20311;-71
2024/01/16 06:19:56;;;;;;;3.27;2.53;;;;;1.90;100209.00;;;;4864597;29;20237;-72
2024/01/16 06:22:42;;;;;;;3.10;2.63;;;;;1.80;100219.00;;;;4861025;29;20241;-71
2024/01/16 06:25:29;;;;;;;5.13;2.60;;;;;1.80;100207.00;;;;4866461;29;20240;-71
2024/01/16 06:28:15;;;;;;;3.73;3.03;;;;;1.90;100213.00;;;;4862641;29;20244;-71
2024/01/16 06:31:01;;;;;;;4.23;2.70;;;;;1.90;100210.00;;;;4864943;29;20739;-71
2024/01/16 06:33:49;;;;;;;2.63;2.20;;;;;1.80;100212.00;;;;4867798;29;20257;-71
2024/01/16 06:36:35;;;;;;;2.30;2.10;;;;;1.90;100205.00;;;;4864324;29;20763;-71
2024/01/16 06:39:22;;;;;;;5.40;2.40;;;;;1.80;100209.00;;;;4863259;29;20229;-71
2024/01/16 06:42:08;;;;;;;2.57;2.30;;;;;1.80;100210.00;;;;4863454;29;20253;-71
2024/01/16 06:44:56;;;;;;;5.07;2.53;;;;;1.80;100211.00;;;;4867488;29;20756;-69
2024/01/16 06:47:42;;;;;;;2.07;1.73;;;;;1.90;100213.00;;;;4854115;29;20236;-72
2024/01/16 06:50:30;;;;;;;2.13;1.97;;;;;1.90;100209.00;;;;4861094;29;20341;-71
2024/01/16 06:53:17;;;;;;;2.20;1.90;;;;;1.80;100217.00;;;;4863595;29;20289;-71
2024/01/16 06:56:04;;;;;;;4.60;2.83;;;;;1.80;100215.00;;;;4853230;29;20241;-70
2024/01/16 06:58:50;;;;;;;1.83;1.73;;;;;1.90;100233.00;;;;4851161;29;20375;-71
2024/01/16 07:01:36;;;;;;;6.27;3.07;;;;;1.90;100220.00;;;;4852147;29;20765;-72
2024/01/16 07:04:23;;;;;;;3.43;2.20;;;;;1.90;100220.00;;;;4859456;29;20236;-73
2024/01/16 07:07:11;;;;;;;5.00;2.90;;;;;2.00;100225.00;;;;4861034;29;20234;-72
2024/01/16 07:09:57;;;;;;;5.27;2.87;;;;;1.90;100236.00;;;;4864088;29;20236;-72
2024/01/16 07:12:43;;;;;;;4.23;3.07;;;;;1.80;100240.00;;;;4856506;29;20250;-72
2024/01/16 07:15:29;;;;;;;4.83;2.83;;;;;1.90;100243.00;;;;4861568;29;20274;-71
2024/01/16 07:18:16;;;;;;;4.10;3.17;;;;;1.80;100239.00;;;;4868719;29;20234;-71
2024/01/16 07:21:03;;;;;;;3.80;2.80;;;;;1.90;100235.00;;;;4858128;29;20373;-71
2024/01/16 07:23:50;;;;;;;5.67;3.27;;;;;1.80;100238.00;;;;4857931;29;20255;-73
2024/01/16 07:26:37;;;;;;;3.17;2.67;;;;;1.80;100239.00;;;;4859261;29;20638;-73
2024/01/16 07:29:23;;;;;;;5.53;3.23;;;;;1.90;100247.00;;;;4857618;29;20747;-72
2024/01/16 07:32:10;;;;;;;5.93;4.13;;;;;1.90;100243.00;;;;4855223;29;20779;-72
2024/01/16 07:34:57;;;;;;;6.57;3.93;;;;;1.80;100265.00;;;;4866344;29;20254;-72
2024/01/16 07:37:43;;;;;;;8.30;3.43;;;;;1.80;100245.00;;;;4851123;29;20367;-72
2024/01/16 07:40:31;;;;;;;15.37;4.23;;;;;1.90;100267.00;;;;4865432;29;20316;-72
2024/01/16 07:43:17;;;;;;;10.57;3.40;;;;;1.80;100255.00;;;;4846592;29;20609;-74
2024/01/16 07:46:04;;;;;;;5.63;4.20;;;;;1.80;100264.00;;;;4854074;29;20752;-71
2024/01/16 07:48:50;;;;;;;7.93;4.17;;;;;1.90;100256.00;;;;4860869;29;20607;-73
2024/01/16 07:51:37;;;;;;;6.63;4.53;;;;;2.00;100257.00;;;;4854112;29;20243;-70
2024/01/16 07:54:24;;;;;;;8.07;4.10;;;;;2.00;100248.00;;;;4860136;29;20617;-70
2024/01/16 07:57:11;;;;;;;15.37;6.03;;;;;2.00;100259.00;;;;4851606;29;20340;-71
2024/01/16 07:59:58;;;;;;;14.23;6.07;;;;;2.00;100259.00;;;;4853139;29;20274;-69
2024/01/16 08:02:45;;;;;;;6.10;4.73;;;;;2.00;100257.00;;;;4853917;29;20314;-70
2024/01/16 08:05:31;;;;;;;8.50;5.53;;;;;2.00;100255.00;;;;4851352;29;20642;-70
2024/01/16 08:08:17;;;;;;;8.97;4.70;;;;;2.00;100257.00;;;;4867447;29;20880;-70
2024/01/16 08:11:04;;;;;;;10.00;5.83;;;;;2.00;100260.00;;;;4860162;29;20301;-72
2024/01/16 08:13:51;;;;;;;7.53;5.67;;;;;2.00;100265.00;;;;4856845;29;20269;-66
2024/01/16 08:16:38;;;;;;;8.67;5.63;;;;;2.00;100266.00;;;;4850816;29;20641;-70
2024/01/16 08:19:24;;;;;;;10.07;7.13;;;;;2.00;100274.00;;;;4859778;29;20238;-71
2024/01/16 08:22:10;;;;;;;8.83;5.63;;;;;1.90;100271.00;;;;4864318;29;20306;-69
2024/01/16 08:24:57;;;;;;;9.77;7.30;;;;;1.90;100265.00;;;;4861336;29;20309;-70
2024/01/16 08:27:44;;;;;;;8.67;6.13;;;;;2.00;100270.00;;;;4849395;29;20811;-69
2024/01/16 08:30:31;;;;;;;5.63;4.07;;;;;1.90;100255.00;;;;4859199;29;20233;-69
2024/01/16 08:33:17;;;;;;;11.87;5.27;;;;;2.00;100273.00;;;;4850895;29;20919;-70
2024/01/16 08:36:09;;;;;;;8.93;5.77;;;;;2.00;100270.00;;;;4862216;29;20243;-72
2024/01/16 08:38:55;;;;;;;6.73;4.93;;;;;1.90;100274.00;;;;4863361;29;20318;-70
2024/01/16 08:41:42;;;;;;;8.03;4.83;;;;;1.90;100279.00;;;;4853640;29;20358;-70
2024/01/16 08:44:28;;;;;;;8.57;5.03;;;;;1.90;100276.00;;;;4867454;29;20297;-72
2024/01/16 08:47:15;;;;;;;6.63;4.63;;;;;1.90;100276.00;;;;4859036;29;20245;-71
2024/01/16 08:50:02;;;;;;;7.20;4.47;;;;;1.90;100276.00;;;;4856061;29;20923;-70
2024/01/16 08:52:49;;;;;;;7.27;4.50;;;;;1.90;100280.00;;;;4845736;29;20469;-71
2024/01/16 08:55:35;;;;;;;7.43;4.50;;;;;1.90;100287.00;;;;4857778;29;20250;-71
2024/01/16 08:58:21;;;;;;;7.33;3.47;;;;;1.90;100273.00;;;;4856958;29;20243;-72
2024/01/16 09:01:08;;;;;;;9.67;3.60;;;;;1.90;100276.00;;;;4846361;29;20243;-70
2024/01/16 09:03:55;;;;;;;5.50;3.57;;;;;1.90;100282.00;;;;4857755;29;20244;-68
2024/01/16 09:06:42;;;;;;;5.80;3.80;;;;;1.90;100287.00;;;;4861445;29;20231;-72
2024/01/16 09:09:28;;;;;;;6.70;3.17;;;;;1.90;100297.00;;;;4861423;29;20621;-69
2024/01/16 09:12:16;;;;;;;4.93;3.40;;;;;1.80;100284.00;;;;4861940;29;20238;-71
2024/01/16 09:15:02;;;;;;;2.93;2.60;;;;;1.80;100298.00;;;;4857123;29;20325;-71
2024/01/16 09:17:48;;;;;;;10.70;2.80;;;;;1.70;100289.00;;;;4854187;29;20357;-69
2024/01/16 09:20:35;;;;;;;7.53;2.20;;;;;1.80;100291.00;;;;4861544;29;20238;-70
2024/01/16 09:23:21;;;;;;;5.97;2.97;;;;;1.70;100286.00;;;;4860119;29;20374;-69
2024/01/16 09:26:08;;;;;;;2.87;2.47;;;;;1.80;100288.00;;;;4865252;29;20882;-72
2024/01/16 09:28:54;;;;;;;3.03;2.60;;;;;1.90;100294.00;;;;4857775;29;20240;-72
2024/01/16 09:31:41;;;;;;;2.47;2.23;;;;;1.80;100295.00;;;;4855959;29;20282;-71
2024/01/16 09:34:27;;;;;;;3.10;2.47;;;;;1.80;100293.00;;;;4859598;29;20240;-70
2024/01/16 09:37:15;;;;;;;3.30;2.47;;;;;1.80;100293.00;;;;4855654;29;20938;-70
2024/01/16 09:40:05;;;;;;;5.77;3.03;;;;;1.70;100292.00;;;;4862239;29;21100;-71
2024/01/16 09:42:51;;;;;;;3.80;2.43;;;;;1.80;100289.00;;;;4848633;29;20245;-71
2024/01/16 09:45:38;;;;;;;2.87;2.13;;;;;1.80;100293.00;;;;4860342;29;20318;-71
2024/01/16 09:48:26;;;;;;;4.70;3.47;;;;;1.80;100295.00;;;;4852123;29;20355;-73
2024/01/16 09:51:14;;;;;;;6.57;2.03;;;;;1.80;100297.00;;;;4850206;29;20322;-71
2024/01/16 09:54:08;;;;;;;2.27;2.00;;;;;1.90;100284.00;;;;4854272;29;20407;-71
2024/01/16 09:56:59;;;;;;;2.73;2.03;;;;;1.80;100282.00;;;;4846775;29;20235;-71
2024/01/16 09:59:45;;;;;;;3.67;2.27;;;;;1.80;100279.00;;;;4851016;29;20951;-71
2024/01/16 10:02:32;;;;;;;2.80;1.67;;;;;1.80;100278.00;;;;4859362;29;20812;-71
2024/01/16 10:05:18;;;;;;;3.63;2.50;;;;;1.80;100278.00;;;;4852332;29;20282;-73
2024/01/16 10:08:05;;;;;;;3.17;1.67;;;;;1.80;100279.00;;;;4862212;29;20600;-71
2024/01/16 10:10:52;;;;;;;2.10;1.60;;;;;1.80;100269.00;;;;4859169;29;20359;-70
2024/01/16 10:13:41;;;;;;;1.93;1.63;;;;;1.80;100268.00;;;;4861719;29;20243;-72
2024/01/16 10:16:59;;;;;;;1.67;1.50;;;;;1.90;100272.00;;;;4866828;29;20234;-71
2024/01/16 10:19:50;;;;;;;2.47;2.10;;;;;1.90;100276.00;;;;4850484;29;21008;-71
2024/01/16 10:22:36;;;;;;;7.40;2.03;;;;;1.80;100262.00;;;;4864134;29;20745;-71
2024/01/16 10:25:23;;;;;;;16.20;2.33;;;;;1.80;100259.00;;;;4853108;29;20228;-71
2024/01/16 10:28:11;;;;;;;2.63;2.07;;;;;1.90;100272.00;;;;4859054;29;20925;-68
2024/01/16 10:31:03;;;;;;;3.97;2.17;;;;;1.90;100257.00;;;;4849397;29;20339;-71
2024/01/16 10:33:51;;;;;;;3.97;1.90;;;;;1.90;100258.00;;;;4874389;23;20266;-74
2024/01/16 10:36:37;;;;;;;3.90;2.27;;;;;1.80;100258.00;;;;4930220;29;20773;-74
2024/01/16 10:39:24;;;;;;;1.63;1.40;;;;;1.80;100250.00;;;;4935926;29;20839;-75
2024/01/16 10:42:23;;;;;;;9.00;2.33;;;;;1.80;100257.00;;;;4935114;29;20657;-72
2024/01/16 10:45:10;;;;;;;3.47;2.43;;;;;1.90;100242.00;;;;4941860;29;20230;-74
2024/01/16 10:48:02;;;;;;;3.03;1.87;;;;;1.90;100244.00;;;;4945958;29;20247;-75
2024/01/16 10:50:52;;;;;;;2.40;2.20;;;;;1.90;100248.00;;;;4932042;29;20240;-75
2024/01/16 10:53:42;;;;;;;2.87;2.13;;;;;1.80;100254.00;;;;4942214;29;20321;-74
2024/01/16 10:56:29;;;;;;;5.23;1.60;;;;;1.90;100251.00;;;;4934912;29;20265;-76
2024/01/16 10:59:20;;;;;;;6.63;2.30;;;;;1.90;100252.00;;;;4940762;29;20366;-73
2024/01/16 11:02:11;;;;;;;2.63;2.20;;;;;1.90;100254.00;;;;4940759;28;20329;-73
2024/01/16 11:04:58;;;;;;;10.23;2.83;;;;;1.90;100249.00;;;;4924225;29;20326;-72
2024/01/16 11:07:47;;;;;;;4.30;1.80;;;;;1.80;100241.00;;;;4922895;29;20271;-68
2024/01/16 11:10:35;;;;;;;6.67;2.70;;;;;1.90;100238.00;;;;4924705;29;20235;-73
2024/01/16 11:13:23;;;;;;;1.67;1.57;;;;;2.00;100240.00;;;;4924777;29;20438;-71
2024/01/16 11:16:11;;;;;;;5.47;1.87;;;;;2.00;100241.00;;;;4924578;29;20232;-76
2024/01/16 11:18:58;;;;;;;6.57;3.03;;;;;2.00;100226.00;;;;4935349;29;20253;-73
2024/01/16 11:22:05;;;;;;;2.13;1.73;;;;;2.20;100230.00;;;;4928340;29;20704;-70
2024/01/16 11:25:11;;;;;;;2.47;2.27;;;;;2.30;100225.00;;;;4930364;29;20306;-73
2024/01/16 11:28:09;;;;;;;2.33;2.10;;;;;2.40;100233.00;;;;4929629;29;20243;-72
2024/01/16 11:30:55;;;;;;;1.50;1.40;;;;;2.30;100228.00;;;;4942836;29;20231;-74
2024/01/16 11:33:44;;;;;;;4.07;2.77;;;;;2.30;100232.00;;;;4922451;29;20316;-74
2024/01/16 11:36:51;;;;;;;5.60;2.63;;;;;2.40;100240.00;;;;4935173;29;20323;-73
2024/01/16 11:39:38;;;;;;;4.73;2.30;;;;;2.50;100247.00;;;;4925250;29;20747;-75
2024/01/16 11:42:27;;;;;;;4.83;2.07;;;;;2.60;100238.00;;;;4921657;29;20243;-77
2024/01/16 11:45:52;;;;;;;1.90;1.77;;;;;2.60;100240.00;;;;4937052;29;20255;-77
2024/01/16 11:48:39;;;;;;;4.23;2.50;;;;;2.70;100220.00;;;;4936915;29;20257;-76
2024/01/16 11:51:26;;;;;;;4.60;2.10;;;;;2.90;100224.00;;;;4935117;29;20239;-75
2024/01/16 11:54:14;;;;;;;4.80;2.53;;;;;3.00;100218.00;;;;4920206;29;20611;-76
2024/01/16 11:57:37;;;;;;;6.70;2.70;;;;;3.20;100209.00;;;;4925964;29;20341;-75
2024/01/16 12:00:28;;;;;;;2.47;2.13;;;;;3.20;100207.00;;;;4932084;29;20235;-74
2024/01/16 12:03:19;;;;;;;3.50;1.87;;;;;3.20;100212.00;;;;4921719;29;20357;-73
2024/01/16 12:06:20;;;;;;;6.50;2.53;;;;;3.20;100186.00;;;;4925478;29;20394;-71
2024/01/16 12:09:14;;;;;;;8.40;1.93;;;;;3.00;100193.00;;;;4931357;29;20240;-73
2024/01/16 12:12:02;;;;;;;3.00;2.17;;;;;3.20;100185.00;;;;4930195;29;20229;-73
2024/01/16 12:14:54;;;;;;;7.07;2.40;;;;;3.20;100176.00;;;;4924757;29;20244;-71
2024/01/16 12:17:40;;;;;;;6.07;2.37;;;;;3.30;100174.00;;;;4936532;29;20273;-73
2024/01/16 12:20:28;;;;;;;3.43;2.03;;;;;3.40;100179.00;;;;4926330;29;20369;-73
2024/01/16 12:23:15;;;;;;;2.63;1.87;;;;;3.70;100147.00;;;;4919813;29;20765;-70
2024/01/16 12:26:03;;;;;;;4.53;2.10;;;;;4.00;100153.00;;;;4924631;29;20232;-74
2024/01/16 12:28:51;;;;;;;6.40;2.20;;;;;4.30;100162.00;;;;4925436;29;20236;-73
2024/01/16 12:31:42;;;;;;;3.67;2.30;;;;;4.40;100142.00;;;;4924747;29;20233;-72
2024/01/16 12:34:29;;;;;;;3.47;1.63;;;;;4.60;100146.00;;;;4922559;29;20308;-73
2024/01/16 12:37:15;;;;;;;2.77;2.07;;;;;4.70;100138.00;;;;4920796;29;20227;-71
2024/01/16 12:40:02;;;;;;;4.30;2.33;;;;;4.90;100149.00;;;;4924013;29;20248;-72
2024/01/16 12:42:49;;;;;;;3.87;2.00;;;;;4.90;100151.00;;;;4925974;29;20244;-75
2024/01/16 12:45:36;;;;;;;8.70;2.10;;;;;5.00;100155.00;;;;4931217;29;20277;-73
2024/01/16 12:48:25;;;;;;;2.93;2.30;;;;;5.00;100155.00;;;;4927288;29;20228;-74
2024/01/16 12:51:12;;;;;;;3.27;2.10;;;;;5.00;100146.00;;;;4933735;28;20227;-72
2024/01/16 12:54:12;;;;;;;2.07;1.73;;;;;4.90;100136.00;;;;4940530;29;20236;-74
2024/01/16 12:56:59;;;;;;;4.73;2.50;;;;;4.90;100140.00;;;;4932688;29;20276;-72
2024/01/16 12:59:45;;;;;;;2.97;2.63;;;;;4.80;100130.00;;;;4937523;29;20364;-71
2024/01/16 13:02:33;;;;;;;2.17;1.80;;;;;4.70;100133.00;;;;4942570;29;20933;-69
2024/01/16 13:05:21;;;;;;;4.20;2.13;;;;;4.50;100128.00;;;;4931814;29;20240;-73
2024/01/16 13:08:07;;;;;;;2.20;1.83;;;;;4.50;100117.00;;;;4929189;29;20232;-74
2024/01/16 13:11:04;;;;;;;2.57;1.93;;;;;4.60;100127.00;;;;4924658;29;20950;-75
2024/01/16 13:14:03;;;;;;;2.63;1.70;;;;;4.40;100115.00;;;;4929168;29;20248;-76
2024/01/16 13:16:50;;;;;;;1.97;1.87;;;;;4.30;100118.00;;;;4936285;29;20241;-76
2024/01/16 13:19:36;;;;;;;4.27;2.13;;;;;4.40;100122.00;;;;4924613;29;20251;-72
2024/01/16 13:22:24;;;;;;;3.50;2.30;;;;;4.50;100134.00;;;;4924461;29;20309;-74
2024/01/16 13:25:26;;;;;;;2.43;1.77;;;;;4.50;100119.00;;;;4930105;29;20255;-70
2024/01/16 13:28:13;;;;;;;2.60;2.17;;;;;4.50;100123.00;;;;4926622;29;20223;-75
2024/01/16 13:31:00;;;;;;;9.47;2.03;;;;;4.50;100125.00;;;;4926779;29;20963;-73
2024/01/16 13:33:46;;;;;;;5.40;2.57;;;;;4.40;100114.00;;;;4926331;29;20232;-70
2024/01/16 13:36:33;;;;;;;3.10;2.60;;;;;4.30;100113.00;;;;4924309;29;20729;-73
2024/01/16 13:39:40;;;;;;;4.17;2.30;;;;;4.30;100116.00;;;;4928518;29;20251;-73
2024/01/16 13:42:27;;;;;;;3.47;2.03;;;;;4.10;100123.00;;;;4926239;28;20307;-73
2024/01/16 13:45:13;;;;;;;3.03;2.33;;;;;4.10;100126.00;;;;4933967;29;21024;-74
2024/01/16 13:48:00;;;;;;;3.00;1.73;;;;;3.90;100116.00;;;;4947096;29;20737;-74
2024/01/16 13:50:47;;;;;;;3.97;2.20;;;;;3.90;100118.00;;;;4928382;29;20249;-75
2024/01/16 13:53:34;;;;;;;5.67;2.07;;;;;3.90;100114.00;;;;4942241;28;20782;-74
2024/01/16 13:56:22;;;;;;;3.07;1.90;;;;;3.70;100115.00;;;;4938356;29;20275;-74
2024/01/16 13:59:28;;;;;;;2.70;2.20;;;;;3.70;100122.00;;;;4941134;29;20259;-75